sensor_id;sensor_type;location;lat;lon;timestamp;temperature;humidity
8736;DHT22;4404;49.308;12.178;2023-05-09T06:49:35;11.30;99.90
8736;DHT22;4404;49.308;12.178;2023-05-09T06:51:38;12.90;99.90
8736;DHT22;4404;49.308;12.178;2023-05-09T06:53:40;13.20;99.90
8736;DHT22;4404;49.308;12.178;2023-05-09T06:55:43;13.30;99.90
8736;DHT22;4404;49.308;12.178;2023-05-09T06:57:45;13.30;99.90
8736;DHT22;4404;49.308;12.178;2023-05-09T06:59:48;13.30;99.90
8736;DHT22;4404;49.308;12.178;2023-05-09T07:01:50;13.20;99.90
8736;DHT22;4404;49.308;12.178;2023-05-09T07:03:52;13.20;99.90
8736;DHT22;4404;49.308;12.178;2023-05-09T07:05:56;13.20;99.90
8736;DHT22;4404;49.308;12.178;2023-05-09T07:08:00;13.30;99.90
8736;DHT22;4404;49.308;12.178;2023-05-09T07:10:06;13.30;99.90
8736;DHT22;4404;49.308;12.178;2023-05-09T07:12:09;13.30;99.90
8736;DHT22;4404;49.308;12.178;2023-05-09T07:14:11;13.40;99.90
8736;DHT22;4404;49.308;12.178;2023-05-09T07:16:14;13.40;99.90
8736;DHT22;4404;49.308;12.178;2023-05-09T07:18:17;13.50;99.90
8736;DHT22;4404;49.308;12.178;2023-05-09T07:20:19;13.50;99.90
8736;DHT22;4404;49.308;12.178;2023-05-09T07:22:23;13.50;99.90
8736;DHT22;4404;49.308;12.178;2023-05-09T07:24:26;13.50;99.90
8736;DHT22;4404;49.308;12.178;2023-05-09T07:26:28;13.50;99.90
8736;DHT22;4404;49.308;12.178;2023-05-09T07:28:30;13.60;99.90
8736;DHT22;4404;49.308;12.178;2023-05-09T07:30:33;13.50;99.90
8736;DHT22;4404;49.308;12.178;2023-05-09T07:32:35;13.70;99.90
8736;DHT22;4404;49.308;12.178;2023-05-09T07:34:38;13.80;99.90
8736;DHT22;4404;49.308;12.178;2023-05-09T07:36:40;13.80;99.90
8736;DHT22;4404;49.308;12.178;2023-05-09T07:38:51;13.80;99.90
8736;DHT22;4404;49.308;12.178;2023-05-09T07:40:54;13.90;99.90
8736;DHT22;4404;49.308;12.178;2023-05-09T07:42:56;14.00;99.90
8736;DHT22;4404;49.308;12.178;2023-05-09T07:45:00;14.00;99.90
8736;DHT22;4404;49.308;12.178;2023-05-09T07:47:05;14.10;99.80
8736;DHT22;4404;49.308;12.178;2023-05-09T07:49:08;14.20;99.90
8736;DHT22;4404;49.308;12.178;2023-05-09T07:51:10;14.30;99.80
8736;DHT22;4404;49.308;12.178;2023-05-09T07:53:13;14.30;98.50
8736;DHT22;4404;49.308;12.178;2023-05-09T07:55:16;14.40;99.20
8736;DHT22;4404;49.308;12.178;2023-05-09T07:57:19;14.50;99.00
8736;DHT22;4404;49.308;12.178;2023-05-09T07:59:22;14.60;98.70
8736;DHT22;4404;49.308;12.178;2023-05-09T08:01:24;14.70;99.30
8736;DHT22;4404;49.308;12.178;2023-05-09T08:03:26;14.80;98.60
8736;DHT22;4404;49.308;12.178;2023-05-09T08:05:28;14.80;98.30
8736;DHT22;4404;49.308;12.178;2023-05-09T08:07:30;14.90;98.20
8736;DHT22;4404;49.308;12.178;2023-05-09T08:09:32;15.00;96.70
8736;DHT22;4404;49.308;12.178;2023-05-09T08:11:36;15.00;97.40
8736;DHT22;4404;49.308;12.178;2023-05-09T08:13:38;15.10;96.40
8736;DHT22;4404;49.308;12.178;2023-05-09T08:15:40;15.20;96.30
8736;DHT22;4404;49.308;12.178;2023-05-09T08:17:42;15.30;95.90
8736;DHT22;4404;49.308;12.178;2023-05-09T08:19:45;15.40;95.60
8736;DHT22;4404;49.308;12.178;2023-05-09T08:21:47;15.50;95.90
8736;DHT22;4404;49.308;12.178;2023-05-09T08:23:49;15.60;97.20
8736;DHT22;4404;49.308;12.178;2023-05-09T08:25:52;15.70;94.80
8736;DHT22;4404;49.308;12.178;2023-05-09T08:27:56;15.70;94.80
8736;DHT22;4404;49.308;12.178;2023-05-09T08:29:58;15.90;95.70
8736;DHT22;4404;49.308;12.178;2023-05-09T08:32:01;16.00;94.50
8736;DHT22;4404;49.308;12.178;2023-05-09T08:34:03;16.30;95.30
8736;DHT22;4404;49.308;12.178;2023-05-09T08:36:06;16.10;94.80
8736;DHT22;4404;49.308;12.178;2023-05-09T08:38:08;16.10;95.00
8736;DHT22;4404;49.308;12.178;2023-05-09T08:40:11;16.30;96.70
8736;DHT22;4404;49.308;12.178;2023-05-09T08:42:15;16.40;94.60
8736;DHT22;4404;49.308;12.178;2023-05-09T08:44:24;16.50;94.00
8736;DHT22;4404;49.308;12.178;2023-05-09T08:46:31;16.50;92.20
8736;DHT22;4404;49.308;12.178;2023-05-09T08:48:37;16.60;91.30
8736;DHT22;4404;49.308;12.178;2023-05-09T08:50:39;16.50;90.50
8736;DHT22;4404;49.308;12.178;2023-05-09T08:52:42;16.60;91.00
8736;DHT22;4404;49.308;12.178;2023-05-09T08:54:44;16.60;91.80
8736;DHT22;4404;49.308;12.178;2023-05-09T08:56:46;16.70;91.60
8736;DHT22;4404;49.308;12.178;2023-05-09T08:58:51;16.70;88.50
8736;DHT22;4404;49.308;12.178;2023-05-09T09:00:55;16.70;84.70
8736;DHT22;4404;49.308;12.178;2023-05-09T09:03:00;16.70;89.20
8736;DHT22;4404;49.308;12.178;2023-05-09T09:05:04;16.80;86.60
8736;DHT22;4404;49.308;12.178;2023-05-09T09:07:07;16.80;84.40
8736;DHT22;4404;49.308;12.178;2023-05-09T09:09:10;16.90;86.60
8736;DHT22;4404;49.308;12.178;2023-05-09T09:11:15;16.90;82.40
8736;DHT22;4404;49.308;12.178;2023-05-09T09:13:19;16.90;77.90
8736;DHT22;4404;49.308;12.178;2023-05-09T09:15:22;16.90;79.50
8736;DHT22;4404;49.308;12.178;2023-05-09T09:17:30;17.00;85.00
8736;DHT22;4404;49.308;12.178;2023-05-09T09:19:34;17.20;78.10
8736;DHT22;4404;49.308;12.178;2023-05-09T09:21:40;17.20;83.00
8736;DHT22;4404;49.308;12.178;2023-05-09T09:23:43;17.40;75.70
8736;DHT22;4404;49.308;12.178;2023-05-09T09:25:47;17.40;76.70
8736;DHT22;4404;49.308;12.178;2023-05-09T09:27:49;17.50;78.40
8736;DHT22;4404;49.308;12.178;2023-05-09T09:29:51;17.60;75.40
8736;DHT22;4404;49.308;12.178;2023-05-09T09:31:54;17.70;77.70
8736;DHT22;4404;49.308;12.178;2023-05-09T09:34:00;17.80;79.90
8736;DHT22;4404;49.308;12.178;2023-05-09T09:36:04;18.00;77.40
8736;DHT22;4404;49.308;12.178;2023-05-09T09:38:06;18.10;74.50
8736;DHT22;4404;49.308;12.178;2023-05-09T09:40:10;18.20;76.40
8736;DHT22;4404;49.308;12.178;2023-05-09T09:42:13;18.30;73.80
8736;DHT22;4404;49.308;12.178;2023-05-09T09:44:17;18.40;74.10
8736;DHT22;4404;49.308;12.178;2023-05-09T09:46:20;18.40;69.50
8736;DHT22;4404;49.308;12.178;2023-05-09T09:48:23;18.40;68.80
8736;DHT22;4404;49.308;12.178;2023-05-09T09:50:27;18.40;68.00
8736;DHT22;4404;49.308;12.178;2023-05-09T09:52:29;18.50;68.10
8736;DHT22;4404;49.308;12.178;2023-05-09T09:54:32;18.50;66.00
8736;DHT22;4404;49.308;12.178;2023-05-09T09:56:38;18.60;64.10
8736;DHT22;4404;49.308;12.178;2023-05-09T09:58:41;18.60;64.50
8736;DHT22;4404;49.308;12.178;2023-05-09T10:00:43;18.70;64.90
8736;DHT22;4404;49.308;12.178;2023-05-09T10:02:46;18.70;64.70
8736;DHT22;4404;49.308;12.178;2023-05-09T10:04:49;18.70;67.20
8736;DHT22;4404;49.308;12.178;2023-05-09T10:06:54;18.80;67.10
8736;DHT22;4404;49.308;12.178;2023-05-09T10:08:57;19.00;64.10
8736;DHT22;4404;49.308;12.178;2023-05-09T10:10:59;19.10;60.60
8736;DHT22;4404;49.308;12.178;2023-05-09T10:13:02;19.20;60.50
8736;DHT22;4404;49.308;12.178;2023-05-09T10:15:07;19.40;61.00
8736;DHT22;4404;49.308;12.178;2023-05-09T10:17:12;19.50;57.80
8736;DHT22;4404;49.308;12.178;2023-05-09T10:19:17;19.50;57.40
8736;DHT22;4404;49.308;12.178;2023-05-09T10:21:21;19.60;55.60
8736;DHT22;4404;49.308;12.178;2023-05-09T10:23:26;19.50;55.70
8736;DHT22;4404;49.308;12.178;2023-05-09T10:25:36;19.60;57.10
8736;DHT22;4404;49.308;12.178;2023-05-09T10:27:42;19.70;60.40
8736;DHT22;4404;49.308;12.178;2023-05-09T10:29:50;19.90;58.10
8736;DHT22;4404;49.308;12.178;2023-05-09T10:31:58;20.00;59.10
8736;DHT22;4404;49.308;12.178;2023-05-09T10:34:04;20.10;63.10
8736;DHT22;4404;49.308;12.178;2023-05-09T10:36:11;20.10;58.70
8736;DHT22;4404;49.308;12.178;2023-05-09T10:38:15;20.30;61.60
8736;DHT22;4404;49.308;12.178;2023-05-09T10:40:18;20.40;62.80
8736;DHT22;4404;49.308;12.178;2023-05-09T10:42:23;20.50;59.80
8736;DHT22;4404;49.308;12.178;2023-05-09T10:44:25;20.60;63.10
8736;DHT22;4404;49.308;12.178;2023-05-09T10:46:28;20.50;54.40
8736;DHT22;4404;49.308;12.178;2023-05-09T10:48:31;20.50;54.70
8736;DHT22;4404;49.308;12.178;2023-05-09T10:50:34;20.50;54.00
8736;DHT22;4404;49.308;12.178;2023-05-09T10:53:06;20.50;56.80
8736;DHT22;4404;49.308;12.178;2023-05-09T10:55:11;20.60;61.50
8736;DHT22;4404;49.308;12.178;2023-05-09T10:57:17;20.80;59.80
8736;DHT22;4404;49.308;12.178;2023-05-09T10:59:37;21.00;56.30
8736;DHT22;4404;49.308;12.178;2023-05-09T11:01:40;21.00;57.50
8736;DHT22;4404;49.308;12.178;2023-05-09T11:03:52;21.10;57.40
8736;DHT22;4404;49.308;12.178;2023-05-09T11:05:56;21.20;57.10
8736;DHT22;4404;49.308;12.178;2023-05-09T11:08:22;21.20;57.70
8736;DHT22;4404;49.308;12.178;2023-05-09T11:10:41;21.20;55.00
8736;DHT22;4404;49.308;12.178;2023-05-09T11:12:55;21.20;54.60
8736;DHT22;4404;49.308;12.178;2023-05-09T11:15:04;21.30;62.20
8736;DHT22;4404;49.308;12.178;2023-05-09T11:17:09;21.40;58.20
8736;DHT22;4404;49.308;12.178;2023-05-09T11:19:13;21.50;56.10
8736;DHT22;4404;49.308;12.178;2023-05-09T11:21:35;21.50;59.50
8736;DHT22;4404;49.308;12.178;2023-05-09T11:23:37;21.60;57.20
8736;DHT22;4404;49.308;12.178;2023-05-09T11:25:39;21.70;57.40
8736;DHT22;4404;49.308;12.178;2023-05-09T11:27:43;21.80;55.10
8736;DHT22;4404;49.308;12.178;2023-05-09T11:29:51;21.80;56.70
8736;DHT22;4404;49.308;12.178;2023-05-09T11:32:04;21.90;56.40
8736;DHT22;4404;49.308;12.178;2023-05-09T11:34:08;22.00;52.50
8736;DHT22;4404;49.308;12.178;2023-05-09T11:36:15;22.10;57.20
8736;DHT22;4404;49.308;12.178;2023-05-09T11:38:20;22.20;57.30
8736;DHT22;4404;49.308;12.178;2023-05-09T11:40:23;22.30;55.80
8736;DHT22;4404;49.308;12.178;2023-05-09T11:42:26;22.40;57.30
8736;DHT22;4404;49.308;12.178;2023-05-09T11:44:30;22.50;59.10
8736;DHT22;4404;49.308;12.178;2023-05-09T11:46:34;22.50;58.60
8736;DHT22;4404;49.308;12.178;2023-05-09T11:48:38;22.60;58.10
8736;DHT22;4404;49.308;12.178;2023-05-09T11:50:41;22.50;52.80
8736;DHT22;4404;49.308;12.178;2023-05-09T11:52:43;22.50;53.90
8736;DHT22;4404;49.308;12.178;2023-05-09T11:54:45;22.40;53.30
8736;DHT22;4404;49.308;12.178;2023-05-09T11:56:48;22.30;55.00
8736;DHT22;4404;49.308;12.178;2023-05-09T11:58:51;22.30;56.70
8736;DHT22;4404;49.308;12.178;2023-05-09T12:00:53;22.40;58.80
8736;DHT22;4404;49.308;12.178;2023-05-09T12:02:57;22.50;59.70
8736;DHT22;4404;49.308;12.178;2023-05-09T12:05:06;22.70;57.30
8736;DHT22;4404;49.308;12.178;2023-05-09T12:07:11;22.70;56.70
8736;DHT22;4404;49.308;12.178;2023-05-09T12:09:13;22.80;56.30
8736;DHT22;4404;49.308;12.178;2023-05-09T12:11:15;22.80;53.90
8736;DHT22;4404;49.308;12.178;2023-05-09T12:13:19;22.80;53.90
8736;DHT22;4404;49.308;12.178;2023-05-09T12:15:22;22.70;55.30
8736;DHT22;4404;49.308;12.178;2023-05-09T12:17:25;22.70;53.90
8736;DHT22;4404;49.308;12.178;2023-05-09T12:19:29;22.60;54.60
8736;DHT22;4404;49.308;12.178;2023-05-09T12:21:31;22.70;54.90
8736;DHT22;4404;49.308;12.178;2023-05-09T12:23:34;22.80;55.60
8736;DHT22;4404;49.308;12.178;2023-05-09T12:25:36;22.90;55.60
8736;DHT22;4404;49.308;12.178;2023-05-09T12:27:39;23.00;58.00
8736;DHT22;4404;49.308;12.178;2023-05-09T12:29:42;23.20;55.00
8736;DHT22;4404;49.308;12.178;2023-05-09T12:31:45;23.30;55.60
8736;DHT22;4404;49.308;12.178;2023-05-09T12:33:48;23.50;53.80
8736;DHT22;4404;49.308;12.178;2023-05-09T12:36:03;23.60;51.00
8736;DHT22;4404;49.308;12.178;2023-05-09T12:38:07;23.50;51.50
8736;DHT22;4404;49.308;12.178;2023-05-09T12:40:11;23.50;49.40
8736;DHT22;4404;49.308;12.178;2023-05-09T12:42:14;23.30;48.50
8736;DHT22;4404;49.308;12.178;2023-05-09T12:44:18;23.20;49.20
8736;DHT22;4404;49.308;12.178;2023-05-09T12:46:21;23.10;50.10
8736;DHT22;4404;49.308;12.178;2023-05-09T12:48:24;23.10;51.10
8736;DHT22;4404;49.308;12.178;2023-05-09T12:50:31;23.10;50.90
8736;DHT22;4404;49.308;12.178;2023-05-09T12:52:38;23.20;53.00
8736;DHT22;4404;49.308;12.178;2023-05-09T12:54:45;23.30;50.10
8736;DHT22;4404;49.308;12.178;2023-05-09T12:56:48;23.40;54.30
8736;DHT22;4404;49.308;12.178;2023-05-09T12:58:53;23.50;52.40
8736;DHT22;4404;49.308;12.178;2023-05-09T13:00:55;23.70;56.90
8736;DHT22;4404;49.308;12.178;2023-05-09T13:02:57;23.80;52.60
8736;DHT22;4404;49.308;12.178;2023-05-09T13:05:07;24.00;51.70
8736;DHT22;4404;49.308;12.178;2023-05-09T13:07:10;24.00;50.50
8736;DHT22;4404;49.308;12.178;2023-05-09T13:09:14;23.90;49.00
8736;DHT22;4404;49.308;12.178;2023-05-09T13:11:16;23.80;50.40
8736;DHT22;4404;49.308;12.178;2023-05-09T13:13:20;23.60;51.00
8736;DHT22;4404;49.308;12.178;2023-05-09T13:15:26;23.50;50.00
8736;DHT22;4404;49.308;12.178;2023-05-09T13:17:29;23.40;50.80
8736;DHT22;4404;49.308;12.178;2023-05-09T13:19:31;23.40;49.90
8736;DHT22;4404;49.308;12.178;2023-05-09T13:21:38;23.30;49.70
8736;DHT22;4404;49.308;12.178;2023-05-09T13:23:42;23.30;49.80
8736;DHT22;4404;49.308;12.178;2023-05-09T13:25:46;23.30;50.90
8736;DHT22;4404;49.308;12.178;2023-05-09T13:27:49;23.50;50.00
8736;DHT22;4404;49.308;12.178;2023-05-09T13:29:51;23.40;50.70
8736;DHT22;4404;49.308;12.178;2023-05-09T13:31:53;23.40;50.90
8736;DHT22;4404;49.308;12.178;2023-05-09T13:33:55;23.40;51.70
8736;DHT22;4404;49.308;12.178;2023-05-09T13:35:57;23.50;53.30
8736;DHT22;4404;49.308;12.178;2023-05-09T13:38:01;23.60;50.60
8736;DHT22;4404;49.308;12.178;2023-05-09T13:40:04;23.70;50.70
8736;DHT22;4404;49.308;12.178;2023-05-09T13:42:09;23.90;50.80
8736;DHT22;4404;49.308;12.178;2023-05-09T13:44:11;24.00;49.90
8736;DHT22;4404;49.308;12.178;2023-05-09T13:46:13;24.00;49.90
8736;DHT22;4404;49.308;12.178;2023-05-09T13:48:15;24.10;51.10
8736;DHT22;4404;49.308;12.178;2023-05-09T13:50:17;24.20;52.70
8736;DHT22;4404;49.308;12.178;2023-05-09T13:52:19;24.30;51.60
8736;DHT22;4404;49.308;12.178;2023-05-09T13:54:22;24.30;48.60
8736;DHT22;4404;49.308;12.178;2023-05-09T13:56:24;24.30;50.60
8736;DHT22;4404;49.308;12.178;2023-05-09T13:58:28;24.40;52.70
8736;DHT22;4404;49.308;12.178;2023-05-09T14:00:32;24.50;52.60
8736;DHT22;4404;49.308;12.178;2023-05-09T14:02:34;24.50;52.20
8736;DHT22;4404;49.308;12.178;2023-05-09T14:04:37;24.50;51.00
8736;DHT22;4404;49.308;12.178;2023-05-09T14:06:39;24.50;51.60
8736;DHT22;4404;49.308;12.178;2023-05-09T14:08:47;24.30;51.50
8736;DHT22;4404;49.308;12.178;2023-05-09T14:10:49;24.60;51.00
8736;DHT22;4404;49.308;12.178;2023-05-09T14:12:51;24.60;51.90
8736;DHT22;4404;49.308;12.178;2023-05-09T14:14:55;24.70;54.10
8736;DHT22;4404;49.308;12.178;2023-05-09T14:16:57;24.60;49.40
8736;DHT22;4404;49.308;12.178;2023-05-09T14:19:01;24.50;50.30
8736;DHT22;4404;49.308;12.178;2023-05-09T14:21:03;24.40;51.30
8736;DHT22;4404;49.308;12.178;2023-05-09T14:23:06;24.40;52.30
8736;DHT22;4404;49.308;12.178;2023-05-09T14:25:08;24.40;51.40
8736;DHT22;4404;49.308;12.178;2023-05-09T14:27:10;24.30;50.10
8736;DHT22;4404;49.308;12.178;2023-05-09T14:29:15;24.30;51.00
8736;DHT22;4404;49.308;12.178;2023-05-09T14:31:18;24.20;49.80
8736;DHT22;4404;49.308;12.178;2023-05-09T14:33:21;24.20;52.50
8736;DHT22;4404;49.308;12.178;2023-05-09T14:35:23;24.20;52.20
8736;DHT22;4404;49.308;12.178;2023-05-09T14:37:25;24.10;51.40
8736;DHT22;4404;49.308;12.178;2023-05-09T14:39:28;24.00;51.00
8736;DHT22;4404;49.308;12.178;2023-05-09T14:41:31;23.90;52.70
8736;DHT22;4404;49.308;12.178;2023-05-09T14:43:33;23.80;52.40
8736;DHT22;4404;49.308;12.178;2023-05-09T14:45:35;23.90;53.30
8736;DHT22;4404;49.308;12.178;2023-05-09T14:47:38;23.90;53.90
8736;DHT22;4404;49.308;12.178;2023-05-09T14:49:41;24.00;53.70
8736;DHT22;4404;49.308;12.178;2023-05-09T14:51:43;24.00;52.60
8736;DHT22;4404;49.308;12.178;2023-05-09T14:53:45;24.00;50.80
8736;DHT22;4404;49.308;12.178;2023-05-09T14:55:48;23.90;51.20
8736;DHT22;4404;49.308;12.178;2023-05-09T14:57:50;23.90;52.80
8736;DHT22;4404;49.308;12.178;2023-05-09T14:59:52;23.90;53.30
8736;DHT22;4404;49.308;12.178;2023-05-09T15:01:54;23.80;54.00
8736;DHT22;4404;49.308;12.178;2023-05-09T15:03:58;23.80;55.10
8736;DHT22;4404;49.308;12.178;2023-05-09T15:06:00;23.80;52.90
8736;DHT22;4404;49.308;12.178;2023-05-09T15:08:02;23.90;54.30
8736;DHT22;4404;49.308;12.178;2023-05-09T15:10:08;23.90;54.20
8736;DHT22;4404;49.308;12.178;2023-05-09T15:12:11;24.00;55.00
8736;DHT22;4404;49.308;12.178;2023-05-09T15:14:13;24.00;54.00
8736;DHT22;4404;49.308;12.178;2023-05-09T15:16:15;23.90;53.10
8736;DHT22;4404;49.308;12.178;2023-05-09T15:18:18;23.90;52.90
8736;DHT22;4404;49.308;12.178;2023-05-09T15:20:22;23.90;53.80
8736;DHT22;4404;49.308;12.178;2023-05-09T15:22:24;24.00;53.10
8736;DHT22;4404;49.308;12.178;2023-05-09T15:24:27;24.00;55.50
8736;DHT22;4404;49.308;12.178;2023-05-09T15:26:29;24.10;53.10
8736;DHT22;4404;49.308;12.178;2023-05-09T15:28:31;24.10;53.60
8736;DHT22;4404;49.308;12.178;2023-05-09T15:30:33;24.10;54.20
8736;DHT22;4404;49.308;12.178;2023-05-09T15:32:38;24.10;53.70
8736;DHT22;4404;49.308;12.178;2023-05-09T15:34:40;24.10;53.60
8736;DHT22;4404;49.308;12.178;2023-05-09T15:36:44;24.10;53.50
8736;DHT22;4404;49.308;12.178;2023-05-09T15:38:46;24.00;53.40
8736;DHT22;4404;49.308;12.178;2023-05-09T15:40:49;24.00;54.40
8736;DHT22;4404;49.308;12.178;2023-05-09T15:42:51;24.00;54.30
8736;DHT22;4404;49.308;12.178;2023-05-09T15:44:53;24.00;54.40
8736;DHT22;4404;49.308;12.178;2023-05-09T15:46:56;24.00;54.20
8736;DHT22;4404;49.308;12.178;2023-05-09T15:48:58;24.00;55.00
8736;DHT22;4404;49.308;12.178;2023-05-09T15:51:00;24.00;54.30
8736;DHT22;4404;49.308;12.178;2023-05-09T15:53:05;24.00;54.30
8736;DHT22;4404;49.308;12.178;2023-05-09T15:55:08;24.00;54.30
8736;DHT22;4404;49.308;12.178;2023-05-09T15:57:12;24.00;56.00
8736;DHT22;4404;49.308;12.178;2023-05-09T15:59:14;24.10;56.30
8736;DHT22;4404;49.308;12.178;2023-05-09T16:01:16;24.20;55.80
8736;DHT22;4404;49.308;12.178;2023-05-09T16:03:19;24.20;55.10
8736;DHT22;4404;49.308;12.178;2023-05-09T16:05:21;24.20;55.50
8736;DHT22;4404;49.308;12.178;2023-05-09T16:07:24;24.20;55.20
8736;DHT22;4404;49.308;12.178;2023-05-09T16:09:28;24.20;56.40
8736;DHT22;4404;49.308;12.178;2023-05-09T16:11:30;24.20;54.40
8736;DHT22;4404;49.308;12.178;2023-05-09T16:13:32;24.10;56.60
8736;DHT22;4404;49.308;12.178;2023-05-09T16:15:34;24.10;56.10
8736;DHT22;4404;49.308;12.178;2023-05-09T16:17:39;24.10;55.80
8736;DHT22;4404;49.308;12.178;2023-05-09T16:19:41;24.10;54.80
8736;DHT22;4404;49.308;12.178;2023-05-09T16:21:45;24.00;55.80
8736;DHT22;4404;49.308;12.178;2023-05-09T16:23:48;24.00;57.00
8736;DHT22;4404;49.308;12.178;2023-05-09T16:25:51;23.90;56.40
8736;DHT22;4404;49.308;12.178;2023-05-09T16:27:54;23.90;56.30
8736;DHT22;4404;49.308;12.178;2023-05-09T16:29:56;23.80;56.00
8736;DHT22;4404;49.308;12.178;2023-05-09T16:31:58;23.70;55.50
8736;DHT22;4404;49.308;12.178;2023-05-09T16:34:00;23.70;56.40
8736;DHT22;4404;49.308;12.178;2023-05-09T16:36:03;23.60;55.60
8736;DHT22;4404;49.308;12.178;2023-05-09T16:38:06;23.50;55.80
8736;DHT22;4404;49.308;12.178;2023-05-09T16:40:09;23.40;55.90
8736;DHT22;4404;49.308;12.178;2023-05-09T16:42:13;23.40;55.30
8736;DHT22;4404;49.308;12.178;2023-05-09T16:44:16;23.30;56.10
8736;DHT22;4404;49.308;12.178;2023-05-09T16:46:18;23.30;57.40
8736;DHT22;4404;49.308;12.178;2023-05-09T16:48:20;23.10;57.10
8736;DHT22;4404;49.308;12.178;2023-05-09T16:50:22;23.10;55.90
8736;DHT22;4404;49.308;12.178;2023-05-09T16:52:25;23.00;56.60
8736;DHT22;4404;49.308;12.178;2023-05-09T16:54:27;23.00;58.20
8736;DHT22;4404;49.308;12.178;2023-05-09T16:56:30;22.90;56.60
8736;DHT22;4404;49.308;12.178;2023-05-09T16:58:34;22.80;57.00
8736;DHT22;4404;49.308;12.178;2023-05-09T17:00:37;22.70;58.40
8736;DHT22;4404;49.308;12.178;2023-05-09T17:02:39;22.70;59.60
8736;DHT22;4404;49.308;12.178;2023-05-09T17:04:41;22.60;57.80
8736;DHT22;4404;49.308;12.178;2023-05-09T17:06:43;22.40;58.10
8736;DHT22;4404;49.308;12.178;2023-05-09T17:08:46;22.40;59.00
8736;DHT22;4404;49.308;12.178;2023-05-09T17:10:48;22.30;59.90
8736;DHT22;4404;49.308;12.178;2023-05-09T17:12:50;22.20;58.00
8736;DHT22;4404;49.308;12.178;2023-05-09T17:14:54;22.10;58.40
8736;DHT22;4404;49.308;12.178;2023-05-09T17:16:56;22.10;58.60
8736;DHT22;4404;49.308;12.178;2023-05-09T17:18:59;21.90;59.40
8736;DHT22;4404;49.308;12.178;2023-05-09T17:21:03;21.20;59.90
8736;DHT22;4404;49.308;12.178;2023-05-09T17:23:06;21.80;59.40
8736;DHT22;4404;49.308;12.178;2023-05-09T17:25:08;21.80;59.80
8736;DHT22;4404;49.308;12.178;2023-05-09T17:27:10;21.70;60.90
8736;DHT22;4404;49.308;12.178;2023-05-09T17:29:13;21.60;60.90
8736;DHT22;4404;49.308;12.178;2023-05-09T17:31:16;21.60;60.70
8736;DHT22;4404;49.308;12.178;2023-05-09T17:33:19;21.50;61.50
8736;DHT22;4404;49.308;12.178;2023-05-09T17:35:21;21.40;60.20
8736;DHT22;4404;49.308;12.178;2023-05-09T17:37:25;21.30;62.40
8736;DHT22;4404;49.308;12.178;2023-05-09T17:39:27;21.20;60.80
8736;DHT22;4404;49.308;12.178;2023-05-09T17:41:31;21.10;62.70
8736;DHT22;4404;49.308;12.178;2023-05-09T17:43:36;19.60;61.10
8736;DHT22;4404;49.308;12.178;2023-05-09T17:45:38;20.80;62.00
8736;DHT22;4404;49.308;12.178;2023-05-09T17:47:42;20.70;63.30
8736;DHT22;4404;49.308;12.178;2023-05-09T17:49:44;20.70;63.00
8736;DHT22;4404;49.308;12.178;2023-05-09T17:51:46;20.60;64.20
8736;DHT22;4404;49.308;12.178;2023-05-09T17:53:48;20.60;65.10
8736;DHT22;4404;49.308;12.178;2023-05-09T17:55:52;20.60;64.80
8736;DHT22;4404;49.308;12.178;2023-05-09T17:57:54;20.60;63.90
8736;DHT22;4404;49.308;12.178;2023-05-09T17:59:56;20.50;64.30
8736;DHT22;4404;49.308;12.178;2023-05-09T18:01:58;20.40;63.40
8736;DHT22;4404;49.308;12.178;2023-05-09T18:04:01;20.30;63.20
8736;DHT22;4404;49.308;12.178;2023-05-09T18:06:06;20.30;63.40
8736;DHT22;4404;49.308;12.178;2023-05-09T18:08:11;20.30;64.30
8736;DHT22;4404;49.308;12.178;2023-05-09T18:10:14;20.20;64.70
